METAR Data

Data at: 2331 UTC 26 Feb 2020

METAR for:KPVC (Provincetown Muni, MA, US)
Text:KPVC 262325Z AUTO 08009KT 2SM BR OVC002 06/06 A2996 RMK AO2
Temperature: 6.0°C ( 43°F)
Dewpoint: 6.0°C ( 43°F) [RH = 100%]
Pressure (altimeter):29.96 inches Hg (1014.6 mb)
Winds:from the E (80 degrees) at 10 MPH (9 knots; 4.6 m/s)
Visibility: 2.00 sm ( 3.22 km)
Ceiling:200 feet AGL
Clouds: overcast cloud deck at 200 feet AGL
Weather:BR (mist)
QC Flag:automated observation with no human augmentation